Map Display - RCTP to RJBB
(last flight recorded 26-11-2020, 20:34 - Andrew Siddall)

Aircraft Weights    Units : Maximums
Passengers :    
Cargo : kg 0 kg
Suggested Fuel Load : kg ? kg
 
     
 
Dry Operating : 0 kg    
Total Payload : 0 kg 0 kg
 
Take Off : 1,463 kg 0 kg
 
Expected Landing : 510 kg ? kg

Joe Cusick,  B350 ,  G-SRBM,  .

Route Distance Previous
Flights
Average
Duration
Average
Fuel Flow
Average
Fuel Use
RCTP - Chiang Kai Shek Intl, Taipei, Taiwan
RJBB - Kansai Intl, Osaka, Japan
921 nm 1 03:00 319 kg/h 953 kg

Current weather :-
2020/11/27 12:03
TAF RCTP 271100Z 2712/2818 04022KT 9999 FEW010 BKN016 BKN040
TEMPO 2712/2716 SCT006 BKN011 BKN030
TEMPO 2720/2724 5000 RA SCT006 BKN011 BKN030
TEMPO 2804/2810 05023G33KT FEW012 BKN022 BKN050
TEMPO 2810/2814 5000 RA SCT006 BKN011 BKN030
2020/11/27 12:09
TAF RJBB 271105Z 2712/2818 21015KT 9999 FEW025 SCT050
BECMG 2712/2714 28022KT
TEMPO 2714/2718 28028G39KT
BECMG 2800/2803 31007KT
BECMG 2806/2809 05010KT

Back to Virtual Airline